Woodlawn, Texas
Current Conditions -  °F | °C
As of 5:55 PM on Friday 24 Oct 2014 (Local Time) from KASL Reporting Station
Clear Clear  
Wind Chill: 78°   Ceiling: Unl
Heat Index: 80°   Visibility: 10mi
Dew Point: 58°   Wind: 0mph
Humidity: 50%   Direction: NA
Pressure: 30.12"   Gusts: NA
Location:  32.67°N, 94.35°W
Report Text: KASL 242255Z AUTO 00000KT 10SM CLR 26/15 A3012 RMK AO1 T02580145
Loading
Personal Weather Stations






























Interactive Weather Map
Tropical Storm Tracking
New forecast layout! Learn more

10-Day Weather Forecast

Advertisements
Track Severe Weather on mobile